sensor_id;sensor_type;location;lat;lon;timestamp;P1;durP1;ratioP1;P2;durP2;ratioP2
22186;SDS011;11259;52.146;12.844;2023-04-06T00:01:43;1.83;;;1.30;;
22186;SDS011;11259;52.146;12.844;2023-04-06T00:04:10;1.00;;;1.00;;
22186;SDS011;11259;52.146;12.844;2023-04-06T00:06:36;1.83;;;1.33;;
22186;SDS011;11259;52.146;12.844;2023-04-06T00:09:01;2.30;;;1.20;;
22186;SDS011;11259;52.146;12.844;2023-04-06T00:11:26;2.00;;;1.35;;
22186;SDS011;11259;52.146;12.844;2023-04-06T00:13:52;1.25;;;1.10;;
22186;SDS011;11259;52.146;12.844;2023-04-06T00:16:17;1.77;;;1.13;;
22186;SDS011;11259;52.146;12.844;2023-04-06T00:18:43;1.25;;;1.10;;
22186;SDS011;11259;52.146;12.844;2023-04-06T00:23:37;2.03;;;1.33;;
22186;SDS011;11259;52.146;12.844;2023-04-06T00:26:02;1.08;;;1.05;;
22186;SDS011;11259;52.146;12.844;2023-04-06T00:28:28;1.63;;;1.35;;
22186;SDS011;11259;52.146;12.844;2023-04-06T00:30:53;1.20;;;1.10;;
22186;SDS011;11259;52.146;12.844;2023-04-06T00:33:19;1.92;;;1.70;;
22186;SDS011;11259;52.146;12.844;2023-04-06T00:35:44;0.73;;;0.73;;
22186;SDS011;11259;52.146;12.844;2023-04-06T00:38:11;2.65;;;1.65;;
22186;SDS011;11259;52.146;12.844;2023-04-06T00:40:36;1.40;;;1.02;;
22186;SDS011;11259;52.146;12.844;2023-04-06T00:43:02;1.73;;;1.63;;
22186;SDS011;11259;52.146;12.844;2023-04-06T00:45:27;2.35;;;1.60;;
22186;SDS011;11259;52.146;12.844;2023-04-06T00:47:52;0.90;;;0.90;;
22186;SDS011;11259;52.146;12.844;2023-04-06T00:50:18;2.85;;;1.42;;
22186;SDS011;11259;52.146;12.844;2023-04-06T00:52:43;0.88;;;0.88;;
22186;SDS011;11259;52.146;12.844;2023-04-06T00:55:10;1.42;;;1.30;;
22186;SDS011;11259;52.146;12.844;2023-04-06T00:57:35;1.50;;;1.40;;
22186;SDS011;11259;52.146;12.844;2023-04-06T01:00:01;2.03;;;1.35;;
22186;SDS011;11259;52.146;12.844;2023-04-06T01:02:26;0.90;;;0.85;;
22186;SDS011;11259;52.146;12.844;2023-04-06T01:04:51;3.75;;;1.40;;
22186;SDS011;11259;52.146;12.844;2023-04-06T01:07:17;1.42;;;1.33;;
22186;SDS011;11259;52.146;12.844;2023-04-06T01:09:42;1.98;;;1.20;;
22186;SDS011;11259;52.146;12.844;2023-04-06T01:12:09;1.88;;;1.52;;
22186;SDS011;11259;52.146;12.844;2023-04-06T01:14:34;1.73;;;1.63;;
22186;SDS011;11259;52.146;12.844;2023-04-06T01:17:00;1.70;;;1.00;;
22186;SDS011;11259;52.146;12.844;2023-04-06T01:19:25;1.50;;;1.33;;
22186;SDS011;11259;52.146;12.844;2023-04-06T01:21:51;1.50;;;1.33;;
22186;SDS011;11259;52.146;12.844;2023-04-06T01:24:17;2.22;;;1.27;;
22186;SDS011;11259;52.146;12.844;2023-04-06T01:26:43;1.20;;;0.88;;
22186;SDS011;11259;52.146;12.844;2023-04-06T01:29:08;1.17;;;1.08;;
22186;SDS011;11259;52.146;12.844;2023-04-06T01:31:34;3.80;;;1.48;;
22186;SDS011;11259;52.146;12.844;2023-04-06T01:33:59;1.77;;;1.10;;
22186;SDS011;11259;52.146;12.844;2023-04-06T01:36:24;1.42;;;1.33;;
22186;SDS011;11259;52.146;12.844;2023-04-06T01:38:50;1.33;;;1.00;;
22186;SDS011;11259;52.146;12.844;2023-04-06T01:41:16;1.42;;;1.33;;
22186;SDS011;11259;52.146;12.844;2023-04-06T01:43:43;1.25;;;1.10;;
22186;SDS011;11259;52.146;12.844;2023-04-06T01:46:09;4.25;;;1.23;;
22186;SDS011;11259;52.146;12.844;2023-04-06T01:48:34;1.30;;;1.13;;
22186;SDS011;11259;52.146;12.844;2023-04-06T01:50:59;1.35;;;1.27;;
22186;SDS011;11259;52.146;12.844;2023-04-06T01:53:25;1.05;;;1.00;;
22186;SDS011;11259;52.146;12.844;2023-04-06T01:55:50;1.10;;;1.00;;
22186;SDS011;11259;52.146;12.844;2023-04-06T01:58:17;0.93;;;0.93;;
22186;SDS011;11259;52.146;12.844;2023-04-06T02:00:42;0.93;;;0.93;;
22186;SDS011;11259;52.146;12.844;2023-04-06T02:03:07;1.30;;;1.20;;
22186;SDS011;11259;52.146;12.844;2023-04-06T02:05:33;1.23;;;1.00;;
22186;SDS011;11259;52.146;12.844;2023-04-06T02:07:59;1.20;;;1.20;;
22186;SDS011;11259;52.146;12.844;2023-04-06T02:10:24;1.10;;;1.00;;
22186;SDS011;11259;52.146;12.844;2023-04-06T02:12:50;1.40;;;1.35;;
22186;SDS011;11259;52.146;12.844;2023-04-06T02:15:16;1.77;;;1.33;;
22186;SDS011;11259;52.146;12.844;2023-04-06T02:17:42;1.40;;;1.30;;
22186;SDS011;11259;52.146;12.844;2023-04-06T02:20:07;1.23;;;1.20;;
22186;SDS011;11259;52.146;12.844;2023-04-06T02:22:34;1.00;;;1.00;;
22186;SDS011;11259;52.146;12.844;2023-04-06T02:24:59;1.40;;;1.30;;
22186;SDS011;11259;52.146;12.844;2023-04-06T02:27:25;1.20;;;1.17;;
22186;SDS011;11259;52.146;12.844;2023-04-06T02:29:50;1.60;;;1.40;;
22186;SDS011;11259;52.146;12.844;2023-04-06T02:32:17;1.27;;;1.20;;
22186;SDS011;11259;52.146;12.844;2023-04-06T02:34:42;2.00;;;1.30;;
22186;SDS011;11259;52.146;12.844;2023-04-06T02:37:07;1.50;;;1.40;;
22186;SDS011;11259;52.146;12.844;2023-04-06T02:39:33;1.15;;;1.02;;
22186;SDS011;11259;52.146;12.844;2023-04-06T02:41:58;1.38;;;1.33;;
22186;SDS011;11259;52.146;12.844;2023-04-06T02:44:23;1.40;;;1.15;;
22186;SDS011;11259;52.146;12.844;2023-04-06T02:46:49;1.40;;;1.30;;
22186;SDS011;11259;52.146;12.844;2023-04-06T02:49:15;1.70;;;1.40;;
22186;SDS011;11259;52.146;12.844;2023-04-06T02:51:41;2.63;;;1.27;;
22186;SDS011;11259;52.146;12.844;2023-04-06T02:54:06;1.80;;;1.25;;
22186;SDS011;11259;52.146;12.844;2023-04-06T02:56:31;1.23;;;1.13;;
22186;SDS011;11259;52.146;12.844;2023-04-06T02:58:57;1.25;;;1.15;;
22186;SDS011;11259;52.146;12.844;2023-04-06T03:01:22;1.92;;;1.10;;
22186;SDS011;11259;52.146;12.844;2023-04-06T03:03:47;0.80;;;0.80;;
22186;SDS011;11259;52.146;12.844;2023-04-06T03:06:14;0.82;;;0.82;;
22186;SDS011;11259;52.146;12.844;2023-04-06T03:08:39;0.88;;;0.77;;
22186;SDS011;11259;52.146;12.844;2023-04-06T03:11:05;1.10;;;0.88;;
22186;SDS011;11259;52.146;12.844;2023-04-06T03:13:30;0.75;;;0.75;;
22186;SDS011;11259;52.146;12.844;2023-04-06T03:15:55;1.40;;;1.20;;
22186;SDS011;11259;52.146;12.844;2023-04-06T03:18:21;1.95;;;1.25;;
22186;SDS011;11259;52.146;12.844;2023-04-06T03:20:47;1.40;;;1.30;;
22186;SDS011;11259;52.146;12.844;2023-04-06T03:23:14;0.95;;;0.95;;
22186;SDS011;11259;52.146;12.844;2023-04-06T03:25:39;2.88;;;1.33;;
22186;SDS011;11259;52.146;12.844;2023-04-06T03:28:04;0.80;;;0.80;;
22186;SDS011;11259;52.146;12.844;2023-04-06T03:30:30;1.85;;;1.63;;
22186;SDS011;11259;52.146;12.844;2023-04-06T03:32:55;1.52;;;1.25;;
22186;SDS011;11259;52.146;12.844;2023-04-06T03:35:20;2.05;;;1.38;;
22186;SDS011;11259;52.146;12.844;2023-04-06T03:37:46;1.17;;;1.13;;
22186;SDS011;11259;52.146;12.844;2023-04-06T03:40:12;1.05;;;0.98;;
22186;SDS011;11259;52.146;12.844;2023-04-06T03:42:38;1.40;;;1.30;;
22186;SDS011;11259;52.146;12.844;2023-04-06T03:45:03;1.05;;;1.00;;
22186;SDS011;11259;52.146;12.844;2023-04-06T03:47:29;1.38;;;1.00;;
22186;SDS011;11259;52.146;12.844;2023-04-06T03:49:55;1.23;;;1.10;;
22186;SDS011;11259;52.146;12.844;2023-04-06T03:52:20;1.15;;;1.05;;
22186;SDS011;11259;52.146;12.844;2023-04-06T03:54:45;0.95;;;0.95;;
22186;SDS011;11259;52.146;12.844;2023-04-06T03:57:12;1.58;;;1.48;;
22186;SDS011;11259;52.146;12.844;2023-04-06T03:59:37;1.55;;;1.08;;
22186;SDS011;11259;52.146;12.844;2023-04-06T04:02:03;1.30;;;1.20;;
22186;SDS011;11259;52.146;12.844;2023-04-06T04:04:28;1.30;;;1.08;;
22186;SDS011;11259;52.146;12.844;2023-04-06T04:06:53;1.30;;;1.20;;
22186;SDS011;11259;52.146;12.844;2023-04-06T04:09:19;1.30;;;1.20;;
22186;SDS011;11259;52.146;12.844;2023-04-06T04:11:44;0.95;;;0.93;;
22186;SDS011;11259;52.146;12.844;2023-04-06T04:14:11;1.05;;;1.05;;
22186;SDS011;11259;52.146;12.844;2023-04-06T04:16:36;3.25;;;1.85;;
22186;SDS011;11259;52.146;12.844;2023-04-06T04:19:01;1.33;;;1.23;;
22186;SDS011;11259;52.146;12.844;2023-04-06T04:21:28;0.85;;;0.85;;
22186;SDS011;11259;52.146;12.844;2023-04-06T04:23:54;0.95;;;0.95;;
22186;SDS011;11259;52.146;12.844;2023-04-06T04:26:19;1.00;;;0.98;;
22186;SDS011;11259;52.146;12.844;2023-04-06T04:28:45;1.13;;;1.02;;
22186;SDS011;11259;52.146;12.844;2023-04-06T04:31:11;1.15;;;1.05;;
22186;SDS011;11259;52.146;12.844;2023-04-06T04:33:37;1.10;;;0.80;;
22186;SDS011;11259;52.146;12.844;2023-04-06T04:36:02;1.35;;;1.13;;
22186;SDS011;11259;52.146;12.844;2023-04-06T04:38:28;3.00;;;1.63;;
22186;SDS011;11259;52.146;12.844;2023-04-06T04:40:53;1.13;;;1.00;;
22186;SDS011;11259;52.146;12.844;2023-04-06T04:43:19;1.30;;;1.20;;
22186;SDS011;11259;52.146;12.844;2023-04-06T04:45:44;1.30;;;1.15;;
22186;SDS011;11259;52.146;12.844;2023-04-06T04:48:11;1.05;;;1.02;;
22186;SDS011;11259;52.146;12.844;2023-04-06T04:50:36;1.88;;;1.77;;
22186;SDS011;11259;52.146;12.844;2023-04-06T04:53:01;1.25;;;1.20;;
22186;SDS011;11259;52.146;12.844;2023-04-06T04:55:27;1.98;;;1.30;;
22186;SDS011;11259;52.146;12.844;2023-04-06T04:57:53;1.90;;;1.55;;
22186;SDS011;11259;52.146;12.844;2023-04-06T05:00:18;1.45;;;1.20;;
22186;SDS011;11259;52.146;12.844;2023-04-06T05:02:44;1.30;;;1.20;;
22186;SDS011;11259;52.146;12.844;2023-04-06T05:05:10;1.88;;;1.58;;
22186;SDS011;11259;52.146;12.844;2023-04-06T05:07:36;2.15;;;1.20;;
22186;SDS011;11259;52.146;12.844;2023-04-06T05:10:01;1.75;;;1.30;;
22186;SDS011;11259;52.146;12.844;2023-04-06T05:12:26;1.20;;;1.10;;
22186;SDS011;11259;52.146;12.844;2023-04-06T05:14:52;1.48;;;1.20;;
22186;SDS011;11259;52.146;12.844;2023-04-06T05:17:18;1.33;;;1.23;;
22186;SDS011;11259;52.146;12.844;2023-04-06T05:19:43;3.10;;;1.63;;
22186;SDS011;11259;52.146;12.844;2023-04-06T05:22:10;2.33;;;2.05;;
22186;SDS011;11259;52.146;12.844;2023-04-06T05:24:35;1.10;;;1.10;;
22186;SDS011;11259;52.146;12.844;2023-04-06T05:27:00;1.80;;;1.70;;
22186;SDS011;11259;52.146;12.844;2023-04-06T05:29:26;1.60;;;1.50;;
22186;SDS011;11259;52.146;12.844;2023-04-06T05:31:51;1.25;;;1.15;;
22186;SDS011;11259;52.146;12.844;2023-04-06T05:34:16;1.25;;;1.15;;
22186;SDS011;11259;52.146;12.844;2023-04-06T05:36:42;1.42;;;1.23;;
22186;SDS011;11259;52.146;12.844;2023-04-06T05:39:09;1.95;;;1.20;;
22186;SDS011;11259;52.146;12.844;2023-04-06T05:41:34;1.38;;;1.33;;
22186;SDS011;11259;52.146;12.844;2023-04-06T05:43:59;2.15;;;1.40;;
22186;SDS011;11259;52.146;12.844;2023-04-06T05:46:25;1.48;;;1.10;;
22186;SDS011;11259;52.146;12.844;2023-04-06T05:48:50;2.28;;;1.50;;
22186;SDS011;11259;52.146;12.844;2023-04-06T05:51:15;1.52;;;1.42;;
22186;SDS011;11259;52.146;12.844;2023-04-06T05:53:41;1.58;;;1.48;;
22186;SDS011;11259;52.146;12.844;2023-04-06T05:56:07;1.73;;;1.63;;
22186;SDS011;11259;52.146;12.844;2023-04-06T05:58:33;2.00;;;1.38;;
22186;SDS011;11259;52.146;12.844;2023-04-06T06:00:58;1.70;;;1.40;;
22186;SDS011;11259;52.146;12.844;2023-04-06T06:03:24;3.28;;;1.63;;
22186;SDS011;11259;52.146;12.844;2023-04-06T06:05:49;2.15;;;1.95;;
22186;SDS011;11259;52.146;12.844;2023-04-06T06:08:14;2.00;;;1.42;;
22186;SDS011;11259;52.146;12.844;2023-04-06T06:10:40;3.55;;;2.28;;
22186;SDS011;11259;52.146;12.844;2023-04-06T06:13:06;3.03;;;1.55;;
22186;SDS011;11259;52.146;12.844;2023-04-06T06:15:32;3.38;;;1.80;;
22186;SDS011;11259;52.146;12.844;2023-04-06T06:17:57;1.80;;;1.70;;
22186;SDS011;11259;52.146;12.844;2023-04-06T06:20:23;3.88;;;2.05;;
22186;SDS011;11259;52.146;12.844;2023-04-06T06:22:48;3.17;;;1.92;;
22186;SDS011;11259;52.146;12.844;2023-04-06T06:25:13;2.85;;;1.75;;
22186;SDS011;11259;52.146;12.844;2023-04-06T06:27:39;2.85;;;2.03;;
22186;SDS011;11259;52.146;12.844;2023-04-06T06:30:07;3.85;;;2.20;;
22186;SDS011;11259;52.146;12.844;2023-04-06T06:32:33;2.15;;;1.67;;
22186;SDS011;11259;52.146;12.844;2023-04-06T06:34:58;2.65;;;1.80;;
22186;SDS011;11259;52.146;12.844;2023-04-06T06:37:24;2.38;;;1.85;;
22186;SDS011;11259;52.146;12.844;2023-04-06T06:39:49;2.55;;;1.83;;
22186;SDS011;11259;52.146;12.844;2023-04-06T06:42:15;3.80;;;1.77;;
22186;SDS011;11259;52.146;12.844;2023-04-06T06:44:40;4.68;;;2.00;;
22186;SDS011;11259;52.146;12.844;2023-04-06T06:47:07;1.95;;;1.60;;
22186;SDS011;11259;52.146;12.844;2023-04-06T06:49:32;1.95;;;1.63;;
22186;SDS011;11259;52.146;12.844;2023-04-06T06:51:57;5.07;;;2.00;;
22186;SDS011;11259;52.146;12.844;2023-04-06T06:54:23;1.98;;;1.60;;
22186;SDS011;11259;52.146;12.844;2023-04-06T06:56:48;2.58;;;2.13;;
22186;SDS011;11259;52.146;12.844;2023-04-06T06:59:13;1.85;;;1.50;;
22186;SDS011;11259;52.146;12.844;2023-04-06T07:01:39;3.13;;;2.00;;
22186;SDS011;11259;52.146;12.844;2023-04-06T07:04:05;2.65;;;1.80;;
22186;SDS011;11259;52.146;12.844;2023-04-06T07:06:31;2.33;;;1.77;;
22186;SDS011;11259;52.146;12.844;2023-04-06T07:08:56;4.68;;;2.40;;
22186;SDS011;11259;52.146;12.844;2023-04-06T07:11:21;2.65;;;2.17;;
22186;SDS011;11259;52.146;12.844;2023-04-06T07:13:47;3.10;;;2.10;;
22186;SDS011;11259;52.146;12.844;2023-04-06T07:16:12;4.20;;;1.92;;
22186;SDS011;11259;52.146;12.844;2023-04-06T07:18:37;2.28;;;1.75;;
22186;SDS011;11259;52.146;12.844;2023-04-06T07:21:04;2.30;;;2.10;;
22186;SDS011;11259;52.146;12.844;2023-04-06T07:23:30;2.60;;;2.20;;
22186;SDS011;11259;52.146;12.844;2023-04-06T07:25:55;5.03;;;2.15;;
22186;SDS011;11259;52.146;12.844;2023-04-06T07:28:20;4.53;;;2.33;;
22186;SDS011;11259;52.146;12.844;2023-04-06T07:30:46;3.55;;;2.40;;
22186;SDS011;11259;52.146;12.844;2023-04-06T07:33:12;2.47;;;2.28;;
22186;SDS011;11259;52.146;12.844;2023-04-06T07:35:37;2.33;;;2.10;;
22186;SDS011;11259;52.146;12.844;2023-04-06T07:38:04;1.90;;;1.80;;
22186;SDS011;11259;52.146;12.844;2023-04-06T07:40:29;4.32;;;1.92;;
22186;SDS011;11259;52.146;12.844;2023-04-06T07:42:55;2.92;;;2.28;;
22186;SDS011;11259;52.146;12.844;2023-04-06T07:45:20;3.05;;;2.40;;
22186;SDS011;11259;52.146;12.844;2023-04-06T07:47:46;3.70;;;2.10;;
22186;SDS011;11259;52.146;12.844;2023-04-06T07:50:11;2.63;;;2.03;;
22186;SDS011;11259;52.146;12.844;2023-04-06T07:52:36;2.83;;;2.22;;
22186;SDS011;11259;52.146;12.844;2023-04-06T07:55:04;3.60;;;2.65;;
22186;SDS011;11259;52.146;12.844;2023-04-06T07:57:29;3.75;;;1.95;;
22186;SDS011;11259;52.146;12.844;2023-04-06T07:59:55;5.10;;;2.10;;
22186;SDS011;11259;52.146;12.844;2023-04-06T08:02:20;3.13;;;2.22;;
22186;SDS011;11259;52.146;12.844;2023-04-06T08:04:45;3.47;;;2.30;;
22186;SDS011;11259;52.146;12.844;2023-04-06T08:07:11;2.70;;;2.20;;
22186;SDS011;11259;52.146;12.844;2023-04-06T08:09:36;7.00;;;2.97;;
22186;SDS011;11259;52.146;12.844;2023-04-06T08:12:03;4.10;;;2.50;;
22186;SDS011;11259;52.146;12.844;2023-04-06T08:14:28;4.78;;;2.67;;
22186;SDS011;11259;52.146;12.844;2023-04-06T08:16:54;3.92;;;2.47;;
22186;SDS011;11259;52.146;12.844;2023-04-06T08:19:19;4.57;;;2.90;;
22186;SDS011;11259;52.146;12.844;2023-04-06T08:21:44;3.00;;;2.25;;
22186;SDS011;11259;52.146;12.844;2023-04-06T08:24:10;4.28;;;2.60;;
22186;SDS011;11259;52.146;12.844;2023-04-06T08:26:35;2.67;;;2.35;;
22186;SDS011;11259;52.146;12.844;2023-04-06T08:29:02;5.60;;;2.42;;
22186;SDS011;11259;52.146;12.844;2023-04-06T08:31:27;4.18;;;2.63;;
22186;SDS011;11259;52.146;12.844;2023-04-06T08:33:52;5.03;;;3.22;;
22186;SDS011;11259;52.146;12.844;2023-04-06T08:36:18;3.08;;;2.28;;
22186;SDS011;11259;52.146;12.844;2023-04-06T08:38:43;5.30;;;2.47;;
22186;SDS011;11259;52.146;12.844;2023-04-06T08:41:08;3.17;;;2.35;;
22186;SDS011;11259;52.146;12.844;2023-04-06T08:43:34;4.18;;;2.40;;
22186;SDS011;11259;52.146;12.844;2023-04-06T08:46:05;4.28;;;2.25;;
22186;SDS011;11259;52.146;12.844;2023-04-06T08:48:30;2.75;;;2.08;;
22186;SDS011;11259;52.146;12.844;2023-04-06T08:50:56;3.80;;;2.92;;
22186;SDS011;11259;52.146;12.844;2023-04-06T08:53:22;3.15;;;2.40;;
22186;SDS011;11259;52.146;12.844;2023-04-06T08:55:47;2.58;;;2.03;;
22186;SDS011;11259;52.146;12.844;2023-04-06T08:58:12;5.53;;;2.92;;
22186;SDS011;11259;52.146;12.844;2023-04-06T09:00:38;2.63;;;2.13;;
22186;SDS011;11259;52.146;12.844;2023-04-06T09:03:05;4.45;;;2.42;;
22186;SDS011;11259;52.146;12.844;2023-04-06T09:05:31;3.13;;;2.22;;
22186;SDS011;11259;52.146;12.844;2023-04-06T09:07:57;3.17;;;2.33;;
22186;SDS011;11259;52.146;12.844;2023-04-06T09:10:22;3.65;;;2.40;;
22186;SDS011;11259;52.146;12.844;2023-04-06T09:12:47;4.80;;;2.85;;
22186;SDS011;11259;52.146;12.844;2023-04-06T09:15:19;3.35;;;2.28;;
22186;SDS011;11259;52.146;12.844;2023-04-06T09:17:45;3.63;;;2.47;;
22186;SDS011;11259;52.146;12.844;2023-04-06T09:20:12;5.50;;;2.40;;
22186;SDS011;11259;52.146;12.844;2023-04-06T09:22:37;3.85;;;2.67;;
22186;SDS011;11259;52.146;12.844;2023-04-06T09:25:04;2.88;;;2.35;;
22186;SDS011;11259;52.146;12.844;2023-04-06T09:27:30;2.75;;;2.45;;
22186;SDS011;11259;52.146;12.844;2023-04-06T09:30:02;3.15;;;1.95;;
22186;SDS011;11259;52.146;12.844;2023-04-06T09:32:28;2.83;;;2.10;;
22186;SDS011;11259;52.146;12.844;2023-04-06T09:34:54;3.40;;;2.50;;
22186;SDS011;11259;52.146;12.844;2023-04-06T09:37:20;4.82;;;2.63;;
22186;SDS011;11259;52.146;12.844;2023-04-06T09:39:46;2.90;;;2.22;;
22186;SDS011;11259;52.146;12.844;2023-04-06T09:42:12;3.28;;;2.70;;
22186;SDS011;11259;52.146;12.844;2023-04-06T09:44:47;3.47;;;2.65;;
22186;SDS011;11259;52.146;12.844;2023-04-06T09:47:13;4.25;;;2.25;;
22186;SDS011;11259;52.146;12.844;2023-04-06T09:49:39;3.47;;;2.10;;
22186;SDS011;11259;52.146;12.844;2023-04-06T09:52:05;3.42;;;2.80;;
22186;SDS011;11259;52.146;12.844;2023-04-06T09:54:33;3.05;;;2.28;;
22186;SDS011;11259;52.146;12.844;2023-04-06T09:57:01;2.88;;;2.30;;
22186;SDS011;11259;52.146;12.844;2023-04-06T09:59:35;3.22;;;2.33;;
22186;SDS011;11259;52.146;12.844;2023-04-06T10:02:03;3.92;;;2.70;;
22186;SDS011;11259;52.146;12.844;2023-04-06T10:04:32;3.22;;;2.65;;
22186;SDS011;11259;52.146;12.844;2023-04-06T10:07:02;2.88;;;2.55;;
22186;SDS011;11259;52.146;12.844;2023-04-06T10:09:28;3.35;;;2.00;;
22186;SDS011;11259;52.146;12.844;2023-04-06T10:11:55;3.75;;;2.17;;
22186;SDS011;11259;52.146;12.844;2023-04-06T10:14:20;2.10;;;1.90;;
22186;SDS011;11259;52.146;12.844;2023-04-06T10:16:46;2.55;;;2.35;;
22186;SDS011;11259;52.146;12.844;2023-04-06T10:19:22;4.65;;;2.15;;
22186;SDS011;11259;52.146;12.844;2023-04-06T10:21:51;3.05;;;2.35;;
22186;SDS011;11259;52.146;12.844;2023-04-06T10:24:19;3.10;;;2.38;;
22186;SDS011;11259;52.146;12.844;2023-04-06T10:26:55;3.60;;;2.50;;
22186;SDS011;11259;52.146;12.844;2023-04-06T10:29:21;4.20;;;2.70;;
22186;SDS011;11259;52.146;12.844;2023-04-06T10:31:48;3.80;;;3.05;;
22186;SDS011;11259;52.146;12.844;2023-04-06T10:34:14;3.13;;;2.22;;
22186;SDS011;11259;52.146;12.844;2023-04-06T10:36:39;3.08;;;2.60;;
22186;SDS011;11259;52.146;12.844;2023-04-06T10:39:04;2.65;;;2.25;;
22186;SDS011;11259;52.146;12.844;2023-04-06T10:41:33;3.60;;;2.70;;
22186;SDS011;11259;52.146;12.844;2023-04-06T10:44:00;2.90;;;2.10;;
22186;SDS011;11259;52.146;12.844;2023-04-06T10:46:26;5.00;;;3.22;;
22186;SDS011;11259;52.146;12.844;2023-04-06T10:48:52;2.50;;;2.15;;
22186;SDS011;11259;52.146;12.844;2023-04-06T10:51:18;2.70;;;2.20;;
22186;SDS011;11259;52.146;12.844;2023-04-06T10:53:44;4.60;;;2.25;;
22186;SDS011;11259;52.146;12.844;2023-04-06T10:56:11;3.80;;;2.85;;
22186;SDS011;11259;52.146;12.844;2023-04-06T10:58:37;3.33;;;3.00;;
22186;SDS011;11259;52.146;12.844;2023-04-06T11:01:03;3.67;;;2.35;;
22186;SDS011;11259;52.146;12.844;2023-04-06T11:03:29;4.43;;;2.35;;
22186;SDS011;11259;52.146;12.844;2023-04-06T11:05:54;3.08;;;2.20;;
22186;SDS011;11259;52.146;12.844;2023-04-06T11:08:24;5.20;;;2.45;;
22186;SDS011;11259;52.146;12.844;2023-04-06T11:10:50;2.50;;;2.30;;
22186;SDS011;11259;52.146;12.844;2023-04-06T11:13:15;2.95;;;2.25;;
22186;SDS011;11259;52.146;12.844;2023-04-06T11:15:41;3.10;;;2.50;;
22186;SDS011;11259;52.146;12.844;2023-04-06T11:18:07;4.07;;;2.80;;
22186;SDS011;11259;52.146;12.844;2023-04-06T11:20:33;3.33;;;2.28;;
22186;SDS011;11259;52.146;12.844;2023-04-06T11:22:58;3.70;;;2.47;;
22186;SDS011;11259;52.146;12.844;2023-04-06T11:25:24;3.75;;;2.58;;
22186;SDS011;11259;52.146;12.844;2023-04-06T11:27:49;2.55;;;1.98;;
22186;SDS011;11259;52.146;12.844;2023-04-06T11:30:14;2.63;;;2.08;;
22186;SDS011;11259;52.146;12.844;2023-04-06T11:32:40;5.63;;;2.55;;
22186;SDS011;11259;52.146;12.844;2023-04-06T11:35:07;7.18;;;2.20;;
22186;SDS011;11259;52.146;12.844;2023-04-06T11:37:36;3.67;;;2.20;;
22186;SDS011;11259;52.146;12.844;2023-04-06T11:40:01;4.13;;;2.33;;
22186;SDS011;11259;52.146;12.844;2023-04-06T11:42:27;2.08;;;1.88;;
22186;SDS011;11259;52.146;12.844;2023-04-06T11:44:53;5.60;;;2.03;;
22186;SDS011;11259;52.146;12.844;2023-04-06T11:47:19;5.18;;;2.75;;
22186;SDS011;11259;52.146;12.844;2023-04-06T11:49:44;2.95;;;2.22;;
22186;SDS011;11259;52.146;12.844;2023-04-06T11:52:18;3.35;;;2.22;;
22186;SDS011;11259;52.146;12.844;2023-04-06T11:54:44;6.22;;;2.75;;
22186;SDS011;11259;52.146;12.844;2023-04-06T11:57:10;2.75;;;2.00;;
22186;SDS011;11259;52.146;12.844;2023-04-06T11:59:35;3.33;;;2.30;;
22186;SDS011;11259;52.146;12.844;2023-04-06T12:02:01;3.85;;;2.40;;
22186;SDS011;11259;52.146;12.844;2023-04-06T12:04:27;2.95;;;1.95;;
22186;SDS011;11259;52.146;12.844;2023-04-06T12:06:52;2.65;;;2.30;;
22186;SDS011;11259;52.146;12.844;2023-04-06T12:09:19;3.58;;;2.65;;
22186;SDS011;11259;52.146;12.844;2023-04-06T12:11:44;2.88;;;2.17;;
22186;SDS011;11259;52.146;12.844;2023-04-06T12:14:10;2.60;;;2.35;;
22186;SDS011;11259;52.146;12.844;2023-04-06T12:16:35;2.85;;;2.10;;
22186;SDS011;11259;52.146;12.844;2023-04-06T12:19:01;2.17;;;1.73;;
22186;SDS011;11259;52.146;12.844;2023-04-06T12:21:26;2.97;;;2.25;;
22186;SDS011;11259;52.146;12.844;2023-04-06T12:23:52;2.85;;;2.35;;
22186;SDS011;11259;52.146;12.844;2023-04-06T12:26:18;2.17;;;1.90;;
22186;SDS011;11259;52.146;12.844;2023-04-06T12:28:44;2.28;;;2.08;;
22186;SDS011;11259;52.146;12.844;2023-04-06T12:31:13;3.13;;;2.83;;
22186;SDS011;11259;52.146;12.844;2023-04-06T12:33:39;2.28;;;2.08;;
22186;SDS011;11259;52.146;12.844;2023-04-06T12:36:05;2.95;;;2.50;;
22186;SDS011;11259;52.146;12.844;2023-04-06T12:38:36;3.33;;;2.67;;
22186;SDS011;11259;52.146;12.844;2023-04-06T12:41:02;2.58;;;2.33;;
22186;SDS011;11259;52.146;12.844;2023-04-06T12:43:29;3.70;;;2.80;;
22186;SDS011;11259;52.146;12.844;2023-04-06T12:45:54;4.93;;;2.80;;
22186;SDS011;11259;52.146;12.844;2023-04-06T12:48:20;2.85;;;2.25;;
22186;SDS011;11259;52.146;12.844;2023-04-06T12:50:53;4.43;;;3.10;;
22186;SDS011;11259;52.146;12.844;2023-04-06T12:53:19;2.88;;;2.53;;
22186;SDS011;11259;52.146;12.844;2023-04-06T12:55:44;3.00;;;2.60;;
22186;SDS011;11259;52.146;12.844;2023-04-06T12:58:09;3.50;;;2.58;;
22186;SDS011;11259;52.146;12.844;2023-04-06T13:00:36;3.15;;;2.45;;
22186;SDS011;11259;52.146;12.844;2023-04-06T13:03:02;2.40;;;2.20;;
22186;SDS011;11259;52.146;12.844;2023-04-06T13:05:27;3.88;;;2.38;;
22186;SDS011;11259;52.146;12.844;2023-04-06T13:07:52;3.65;;;2.47;;
22186;SDS011;11259;52.146;12.844;2023-04-06T13:10:18;3.60;;;3.00;;
22186;SDS011;11259;52.146;12.844;2023-04-06T13:12:43;4.38;;;2.75;;
22186;SDS011;11259;52.146;12.844;2023-04-06T13:15:09;2.83;;;2.40;;
22186;SDS011;11259;52.146;12.844;2023-04-06T13:17:36;3.38;;;2.65;;
22186;SDS011;11259;52.146;12.844;2023-04-06T13:20:01;2.80;;;2.25;;
22186;SDS011;11259;52.146;12.844;2023-04-06T13:22:28;2.10;;;1.90;;
22186;SDS011;11259;52.146;12.844;2023-04-06T13:24:54;2.85;;;2.17;;
22186;SDS011;11259;52.146;12.844;2023-04-06T13:27:19;3.17;;;2.45;;
22186;SDS011;11259;52.146;12.844;2023-04-06T13:29:45;3.00;;;2.42;;
22186;SDS011;11259;52.146;12.844;2023-04-06T13:32:10;5.28;;;3.10;;
22186;SDS011;11259;52.146;12.844;2023-04-06T13:34:37;2.47;;;2.08;;
22186;SDS011;11259;52.146;12.844;2023-04-06T13:37:02;3.85;;;3.00;;
22186;SDS011;11259;52.146;12.844;2023-04-06T13:39:27;2.97;;;2.42;;
22186;SDS011;11259;52.146;12.844;2023-04-06T13:41:53;2.67;;;2.47;;
22186;SDS011;11259;52.146;12.844;2023-04-06T13:44:18;3.10;;;2.28;;
22186;SDS011;11259;52.146;12.844;2023-04-06T13:46:43;2.78;;;2.25;;
22186;SDS011;11259;52.146;12.844;2023-04-06T13:49:09;3.55;;;2.55;;
22186;SDS011;11259;52.146;12.844;2023-04-06T13:51:35;2.60;;;2.40;;
22186;SDS011;11259;52.146;12.844;2023-04-06T13:54:01;2.50;;;2.30;;
22186;SDS011;11259;52.146;12.844;2023-04-06T13:56:26;4.28;;;2.85;;
22186;SDS011;11259;52.146;12.844;2023-04-06T13:58:53;4.97;;;2.45;;
22186;SDS011;11259;52.146;12.844;2023-04-06T14:01:18;2.95;;;2.65;;
22186;SDS011;11259;52.146;12.844;2023-04-06T14:03:44;3.05;;;2.72;;
22186;SDS011;11259;52.146;12.844;2023-04-06T14:06:10;2.40;;;2.20;;
22186;SDS011;11259;52.146;12.844;2023-04-06T14:08:37;2.47;;;2.28;;
22186;SDS011;11259;52.146;12.844;2023-04-06T14:11:03;2.88;;;2.58;;
22186;SDS011;11259;52.146;12.844;2023-04-06T14:13:28;4.68;;;2.72;;
22186;SDS011;11259;52.146;12.844;2023-04-06T14:15:53;2.88;;;2.50;;
22186;SDS011;11259;52.146;12.844;2023-04-06T14:18:19;2.30;;;2.10;;
22186;SDS011;11259;52.146;12.844;2023-04-06T14:20:44;3.60;;;2.45;;
22186;SDS011;11259;52.146;12.844;2023-04-06T14:23:10;2.90;;;2.60;;
22186;SDS011;11259;52.146;12.844;2023-04-06T14:25:36;3.13;;;2.58;;
22186;SDS011;11259;52.146;12.844;2023-04-06T14:28:02;2.83;;;2.35;;